sensor_id;sensor_type;location;lat;lon;timestamp;pressure;altitude;pressure_sealevel;temperature;humidity
72570;BME280;60594;50.204;8.844;2024-01-15T00:01:53;98845.50;;;-2.87;100.00
72570;BME280;60594;50.204;8.844;2024-01-15T00:04:41;98842.97;;;-2.89;100.00
72570;BME280;60594;50.204;8.844;2024-01-15T00:07:26;98846.06;;;-2.99;100.00
72570;BME280;60594;50.204;8.844;2024-01-15T00:10:10;98834.75;;;-2.98;100.00
72570;BME280;60594;50.204;8.844;2024-01-15T00:12:55;98825.88;;;-2.94;100.00
72570;BME280;60594;50.204;8.844;2024-01-15T00:15:40;98825.16;;;-2.98;100.00
72570;BME280;60594;50.204;8.844;2024-01-15T00:18:25;98816.44;;;-2.97;100.00
72570;BME280;60594;50.204;8.844;2024-01-15T00:21:10;98817.53;;;-2.84;100.00
72570;BME280;60594;50.204;8.844;2024-01-15T00:23:54;98816.06;;;-2.89;100.00
72570;BME280;60594;50.204;8.844;2024-01-15T00:26:40;98813.19;;;-3.02;100.00
72570;BME280;60594;50.204;8.844;2024-01-15T00:29:25;98808.84;;;-3.01;100.00
72570;BME280;60594;50.204;8.844;2024-01-15T00:32:10;98802.78;;;-3.02;100.00
72570;BME280;60594;50.204;8.844;2024-01-15T00:34:55;98798.03;;;-3.11;100.00
72570;BME280;60594;50.204;8.844;2024-01-15T00:37:40;98802.38;;;-3.11;100.00
72570;BME280;60594;50.204;8.844;2024-01-15T00:40:25;98793.44;;;-3.06;100.00
72570;BME280;60594;50.204;8.844;2024-01-15T00:43:10;98797.31;;;-3.14;100.00
72570;BME280;60594;50.204;8.844;2024-01-15T00:45:55;98782.69;;;-3.17;100.00
72570;BME280;60594;50.204;8.844;2024-01-15T00:48:39;98795.91;;;-3.21;100.00
72570;BME280;60594;50.204;8.844;2024-01-15T00:51:24;98786.75;;;-3.11;100.00
72570;BME280;60594;50.204;8.844;2024-01-15T00:54:09;98785.41;;;-3.01;100.00
72570;BME280;60594;50.204;8.844;2024-01-15T00:56:54;98777.31;;;-3.14;100.00
72570;BME280;60594;50.204;8.844;2024-01-15T00:59:39;98787.22;;;-3.20;100.00
72570;BME280;60594;50.204;8.844;2024-01-15T01:02:26;98779.53;;;-3.06;100.00
72570;BME280;60594;50.204;8.844;2024-01-15T01:05:10;98775.66;;;-3.15;100.00
72570;BME280;60594;50.204;8.844;2024-01-15T01:07:55;98779.66;;;-3.08;100.00
72570;BME280;60594;50.204;8.844;2024-01-15T01:10:40;98784.00;;;-3.08;100.00
72570;BME280;60594;50.204;8.844;2024-01-15T01:13:27;98779.41;;;-3.03;100.00
72570;BME280;60594;50.204;8.844;2024-01-15T01:16:12;98772.66;;;-3.07;100.00
72570;BME280;60594;50.204;8.844;2024-01-15T01:18:57;98782.25;;;-3.08;100.00
72570;BME280;60594;50.204;8.844;2024-01-15T01:21:42;98770.06;;;-3.07;100.00
72570;BME280;60594;50.204;8.844;2024-01-15T01:24:27;98756.41;;;-2.95;100.00
72570;BME280;60594;50.204;8.844;2024-01-15T01:27:12;98757.66;;;-3.02;100.00
72570;BME280;60594;50.204;8.844;2024-01-15T01:29:57;98747.16;;;-3.01;100.00
72570;BME280;60594;50.204;8.844;2024-01-15T01:32:41;98739.09;;;-2.96;100.00
72570;BME280;60594;50.204;8.844;2024-01-15T01:35:27;98742.72;;;-2.99;100.00
72570;BME280;60594;50.204;8.844;2024-01-15T01:38:23;98671.19;;;-3.44;100.00
72570;BME280;60594;50.204;8.844;2024-01-15T01:41:09;98734.50;;;-2.91;100.00
72570;BME280;60594;50.204;8.844;2024-01-15T01:43:54;98735.44;;;-2.92;100.00
72570;BME280;60594;50.204;8.844;2024-01-15T01:46:39;98727.69;;;-2.94;100.00
72570;BME280;60594;50.204;8.844;2024-01-15T01:49:29;98717.25;;;-2.94;100.00
72570;BME280;60594;50.204;8.844;2024-01-15T01:52:14;98725.66;;;-2.87;100.00
72570;BME280;60594;50.204;8.844;2024-01-15T01:55:00;98719.78;;;-2.92;100.00
72570;BME280;60594;50.204;8.844;2024-01-15T01:57:46;98717.19;;;-2.92;100.00
72570;BME280;60594;50.204;8.844;2024-01-15T02:00:32;98716.38;;;-2.93;100.00
72570;BME280;60594;50.204;8.844;2024-01-15T02:03:19;98719.44;;;-2.85;100.00
72570;BME280;60594;50.204;8.844;2024-01-15T02:06:04;98707.84;;;-2.79;100.00
72570;BME280;60594;50.204;8.844;2024-01-15T02:08:50;98713.13;;;-2.81;100.00
72570;BME280;60594;50.204;8.844;2024-01-15T02:11:35;98719.81;;;-2.75;100.00
72570;BME280;60594;50.204;8.844;2024-01-15T02:14:20;98715.25;;;-2.72;100.00
72570;BME280;60594;50.204;8.844;2024-01-15T02:17:06;98723.78;;;-2.68;100.00
72570;BME280;60594;50.204;8.844;2024-01-15T02:19:51;98705.84;;;-2.74;100.00
72570;BME280;60594;50.204;8.844;2024-01-15T02:22:36;98720.75;;;-2.76;100.00
72570;BME280;60594;50.204;8.844;2024-01-15T02:25:21;98715.34;;;-2.73;100.00
72570;BME280;60594;50.204;8.844;2024-01-15T02:28:08;98713.88;;;-2.62;100.00
72570;BME280;60594;50.204;8.844;2024-01-15T02:30:54;98715.34;;;-2.56;100.00
72570;BME280;60594;50.204;8.844;2024-01-15T02:33:38;98722.22;;;-2.55;100.00
72570;BME280;60594;50.204;8.844;2024-01-15T02:36:23;98717.00;;;-2.55;100.00
72570;BME280;60594;50.204;8.844;2024-01-15T02:39:08;98726.44;;;-2.53;100.00
72570;BME280;60594;50.204;8.844;2024-01-15T02:41:53;98730.59;;;-2.66;100.00
72570;BME280;60594;50.204;8.844;2024-01-15T02:44:38;98728.28;;;-2.55;100.00
72570;BME280;60594;50.204;8.844;2024-01-15T02:47:23;98723.94;;;-2.54;100.00
72570;BME280;60594;50.204;8.844;2024-01-15T02:50:09;98721.06;;;-2.50;100.00
72570;BME280;60594;50.204;8.844;2024-01-15T02:52:54;98711.34;;;-2.46;100.00
72570;BME280;60594;50.204;8.844;2024-01-15T02:55:39;98715.63;;;-2.45;100.00
72570;BME280;60594;50.204;8.844;2024-01-15T02:58:24;98715.53;;;-2.44;100.00
72570;BME280;60594;50.204;8.844;2024-01-15T03:01:09;98722.66;;;-2.47;100.00
72570;BME280;60594;50.204;8.844;2024-01-15T03:03:54;98723.09;;;-2.55;100.00
72570;BME280;60594;50.204;8.844;2024-01-15T03:06:39;98721.31;;;-2.54;100.00
72570;BME280;60594;50.204;8.844;2024-01-15T03:09:25;98721.06;;;-2.50;100.00
72570;BME280;60594;50.204;8.844;2024-01-15T03:12:09;98736.03;;;-2.53;100.00
72570;BME280;60594;50.204;8.844;2024-01-15T03:14:56;98731.41;;;-2.48;100.00
72570;BME280;60594;50.204;8.844;2024-01-15T03:17:41;98734.31;;;-2.37;100.00
72570;BME280;60594;50.204;8.844;2024-01-15T03:20:27;98727.19;;;-2.34;100.00
72570;BME280;60594;50.204;8.844;2024-01-15T03:23:12;98736.41;;;-2.44;100.00
72570;BME280;60594;50.204;8.844;2024-01-15T03:25:57;98728.88;;;-2.50;100.00
72570;BME280;60594;50.204;8.844;2024-01-15T03:28:42;98740.25;;;-2.51;100.00
72570;BME280;60594;50.204;8.844;2024-01-15T03:31:27;98739.00;;;-2.44;100.00
72570;BME280;60594;50.204;8.844;2024-01-15T03:34:11;98739.75;;;-2.42;100.00
72570;BME280;60594;50.204;8.844;2024-01-15T03:36:56;98736.19;;;-2.39;100.00
72570;BME280;60594;50.204;8.844;2024-01-15T03:39:41;98731.13;;;-2.42;100.00
72570;BME280;60594;50.204;8.844;2024-01-15T03:42:26;98724.03;;;-2.40;100.00
72570;BME280;60594;50.204;8.844;2024-01-15T03:45:11;98730.25;;;-2.43;100.00
72570;BME280;60594;50.204;8.844;2024-01-15T03:47:56;98734.56;;;-2.42;100.00
72570;BME280;60594;50.204;8.844;2024-01-15T03:50:41;98732.56;;;-2.37;100.00
72570;BME280;60594;50.204;8.844;2024-01-15T03:53:26;98737.00;;;-2.39;100.00
72570;BME280;60594;50.204;8.844;2024-01-15T03:56:11;98724.91;;;-2.40;100.00
72570;BME280;60594;50.204;8.844;2024-01-15T03:58:56;98725.75;;;-2.39;100.00
72570;BME280;60594;50.204;8.844;2024-01-15T04:01:41;98728.88;;;-2.50;100.00
72570;BME280;60594;50.204;8.844;2024-01-15T04:04:26;98726.06;;;-2.45;100.00
72570;BME280;60594;50.204;8.844;2024-01-15T04:07:10;98719.69;;;-2.40;100.00
72570;BME280;60594;50.204;8.844;2024-01-15T04:09:56;98719.69;;;-2.40;100.00
72570;BME280;60594;50.204;8.844;2024-01-15T04:12:41;98715.84;;;-2.50;100.00
72570;BME280;60594;50.204;8.844;2024-01-15T04:15:26;98717.16;;;-2.41;100.00
72570;BME280;60594;50.204;8.844;2024-01-15T04:18:10;98720.00;;;-2.46;100.00
72570;BME280;60594;50.204;8.844;2024-01-15T04:20:55;98713.88;;;-2.45;100.00
72570;BME280;60594;50.204;8.844;2024-01-15T04:23:40;98710.09;;;-2.39;100.00
72570;BME280;60594;50.204;8.844;2024-01-15T04:26:25;98710.47;;;-2.30;100.00
72570;BME280;60594;50.204;8.844;2024-01-15T04:29:10;98705.91;;;-2.26;100.00
72570;BME280;60594;50.204;8.844;2024-01-15T04:31:55;98696.88;;;-2.36;100.00
72570;BME280;60594;50.204;8.844;2024-01-15T04:34:40;98700.13;;;-2.48;100.00
72570;BME280;60594;50.204;8.844;2024-01-15T04:37:25;98705.56;;;-2.53;100.00
72570;BME280;60594;50.204;8.844;2024-01-15T04:40:10;98700.13;;;-2.48;100.00
72570;BME280;60594;50.204;8.844;2024-01-15T04:42:56;98694.69;;;-2.44;100.00
72570;BME280;60594;50.204;8.844;2024-01-15T04:45:40;98703.97;;;-2.38;100.00
72570;BME280;60594;50.204;8.844;2024-01-15T04:48:25;98698.81;;;-2.40;100.00
72570;BME280;60594;50.204;8.844;2024-01-15T04:51:10;98706.72;;;-2.41;100.00
72570;BME280;60594;50.204;8.844;2024-01-15T04:53:55;98700.19;;;-2.33;100.00
72570;BME280;60594;50.204;8.844;2024-01-15T04:56:40;98695.91;;;-2.34;100.00
72570;BME280;60594;50.204;8.844;2024-01-15T04:59:25;98712.34;;;-2.16;100.00
72570;BME280;60594;50.204;8.844;2024-01-15T05:02:09;98700.03;;;-2.14;100.00
72570;BME280;60594;50.204;8.844;2024-01-15T05:04:54;98699.88;;;-2.11;100.00
72570;BME280;60594;50.204;8.844;2024-01-15T05:07:40;98697.13;;;-2.08;100.00
72570;BME280;60594;50.204;8.844;2024-01-15T05:10:24;98697.63;;;-2.17;100.00
72570;BME280;60594;50.204;8.844;2024-01-15T05:13:10;98700.97;;;-2.15;100.00
72570;BME280;60594;50.204;8.844;2024-01-15T05:15:55;98701.97;;;-2.18;100.00
72570;BME280;60594;50.204;8.844;2024-01-15T05:18:40;98690.97;;;-2.23;100.00
72570;BME280;60594;50.204;8.844;2024-01-15T05:21:25;98697.94;;;-2.23;100.00
72570;BME280;60594;50.204;8.844;2024-01-15T05:24:10;98684.88;;;-2.23;100.00
72570;BME280;60594;50.204;8.844;2024-01-15T05:26:55;98688.28;;;-2.21;100.00
72570;BME280;60594;50.204;8.844;2024-01-15T05:29:40;98677.44;;;-2.31;100.00
72570;BME280;60594;50.204;8.844;2024-01-15T05:32:25;98678.91;;;-2.25;100.00
72570;BME280;60594;50.204;8.844;2024-01-15T05:35:09;98677.06;;;-2.23;100.00
72570;BME280;60594;50.204;8.844;2024-01-15T05:37:55;98677.06;;;-2.23;100.00
72570;BME280;60594;50.204;8.844;2024-01-15T05:40:39;98686.84;;;-2.11;100.00
72570;BME280;60594;50.204;8.844;2024-01-15T05:43:24;98696.09;;;-2.06;100.00
72570;BME280;60594;50.204;8.844;2024-01-15T05:46:09;98696.19;;;-2.07;100.00
72570;BME280;60594;50.204;8.844;2024-01-15T05:48:54;98688.00;;;-2.17;100.00
72570;BME280;60594;50.204;8.844;2024-01-15T05:51:39;98695.50;;;-2.11;100.00
72570;BME280;60594;50.204;8.844;2024-01-15T05:54:24;98690.38;;;-2.12;100.00
72570;BME280;60594;50.204;8.844;2024-01-15T05:57:09;98689.38;;;-2.10;100.00
72570;BME280;60594;50.204;8.844;2024-01-15T05:59:54;98688.00;;;-2.17;100.00
72570;BME280;60594;50.204;8.844;2024-01-15T06:02:39;98687.59;;;-2.09;100.00
72570;BME280;60594;50.204;8.844;2024-01-15T06:05:25;98695.81;;;-2.17;100.00
72570;BME280;60594;50.204;8.844;2024-01-15T06:08:09;98693.91;;;-2.13;100.00
72570;BME280;60594;50.204;8.844;2024-01-15T06:10:56;98686.75;;;-2.10;100.00
72570;BME280;60594;50.204;8.844;2024-01-15T06:13:41;98691.16;;;-1.95;100.00
72570;BME280;60594;50.204;8.844;2024-01-15T06:16:26;98703.44;;;-1.97;100.00
72570;BME280;60594;50.204;8.844;2024-01-15T06:19:11;98705.59;;;-2.05;100.00
72570;BME280;60594;50.204;8.844;2024-01-15T06:21:56;98695.69;;;-1.98;100.00
72570;BME280;60594;50.204;8.844;2024-01-15T06:24:41;98698.47;;;-2.01;100.00
72570;BME280;60594;50.204;8.844;2024-01-15T06:27:26;98700.84;;;-1.97;100.00
72570;BME280;60594;50.204;8.844;2024-01-15T06:30:11;98687.97;;;-2.00;100.00
72570;BME280;60594;50.204;8.844;2024-01-15T06:32:56;98701.75;;;-1.98;100.00
72570;BME280;60594;50.204;8.844;2024-01-15T06:35:41;98697.88;;;-2.06;100.00
72570;BME280;60594;50.204;8.844;2024-01-15T06:38:26;98694.91;;;-2.16;100.00
72570;BME280;60594;50.204;8.844;2024-01-15T06:41:11;98690.81;;;-2.04;100.00
72570;BME280;60594;50.204;8.844;2024-01-15T06:43:56;98693.75;;;-1.95;100.00
72570;BME280;60594;50.204;8.844;2024-01-15T06:46:42;98684.34;;;-1.97;100.00
72570;BME280;60594;50.204;8.844;2024-01-15T06:49:30;98688.78;;;-1.99;100.00
72570;BME280;60594;50.204;8.844;2024-01-15T06:52:15;98690.72;;;-2.03;100.00
72570;BME280;60594;50.204;8.844;2024-01-15T06:55:00;98685.84;;;-1.93;100.00
72570;BME280;60594;50.204;8.844;2024-01-15T06:57:44;98682.22;;;-1.91;100.00
72570;BME280;60594;50.204;8.844;2024-01-15T07:00:29;98676.41;;;-1.96;100.00
72570;BME280;60594;50.204;8.844;2024-01-15T07:03:14;98681.31;;;-1.90;100.00
72570;BME280;60594;50.204;8.844;2024-01-15T07:05:59;98679.13;;;-1.82;100.00
72570;BME280;60594;50.204;8.844;2024-01-15T07:08:45;98678.09;;;-1.79;100.00
72570;BME280;60594;50.204;8.844;2024-01-15T07:11:31;98674.66;;;-1.80;100.00
72570;BME280;60594;50.204;8.844;2024-01-15T07:14:15;98679.78;;;-1.78;100.00
72570;BME280;60594;50.204;8.844;2024-01-15T07:17:01;98668.59;;;-1.80;100.00
72570;BME280;60594;50.204;8.844;2024-01-15T07:19:45;98679.13;;;-1.82;100.00
72570;BME280;60594;50.204;8.844;2024-01-15T07:22:31;98688.03;;;-2.01;100.00
72570;BME280;60594;50.204;8.844;2024-01-15T07:25:16;98683.31;;;-1.95;100.00
72570;BME280;60594;50.204;8.844;2024-01-15T07:28:01;98693.56;;;-2.07;100.00
72570;BME280;60594;50.204;8.844;2024-01-15T07:30:48;98689.94;;;-2.05;100.00
72570;BME280;60594;50.204;8.844;2024-01-15T07:33:33;98693.50;;;-2.06;100.00
72570;BME280;60594;50.204;8.844;2024-01-15T07:36:19;98691.66;;;-2.04;100.00
72570;BME280;60594;50.204;8.844;2024-01-15T07:39:04;98694.25;;;-2.04;100.00
72570;BME280;60594;50.204;8.844;2024-01-15T07:41:48;98696.88;;;-2.04;100.00
72570;BME280;60594;50.204;8.844;2024-01-15T07:44:34;98701.41;;;-2.07;100.00
72570;BME280;60594;50.204;8.844;2024-01-15T07:47:19;98700.38;;;-2.05;100.00
72570;BME280;60594;50.204;8.844;2024-01-15T07:50:05;98702.09;;;-2.04;100.00
72570;BME280;60594;50.204;8.844;2024-01-15T07:52:50;98692.41;;;-2.02;100.00
72570;BME280;60594;50.204;8.844;2024-01-15T07:55:35;98696.03;;;-2.04;100.00
72570;BME280;60594;50.204;8.844;2024-01-15T07:58:20;98690.06;;;-2.06;100.00
72570;BME280;60594;50.204;8.844;2024-01-15T08:01:05;98692.47;;;-2.03;100.00
72570;BME280;60594;50.204;8.844;2024-01-15T08:03:50;98680.94;;;-1.99;100.00
72570;BME280;60594;50.204;8.844;2024-01-15T08:06:37;98689.47;;;-1.96;100.00
72570;BME280;60594;50.204;8.844;2024-01-15T08:09:21;98686.25;;;-1.85;100.00
72570;BME280;60594;50.204;8.844;2024-01-15T08:12:07;98688.56;;;-1.79;100.00
72570;BME280;60594;50.204;8.844;2024-01-15T08:14:52;98681.38;;;-1.76;100.00
72570;BME280;60594;50.204;8.844;2024-01-15T08:17:37;98674.66;;;-1.80;100.00
72570;BME280;60594;50.204;8.844;2024-01-15T08:20:21;98676.84;;;-1.72;100.00
72570;BME280;60594;50.204;8.844;2024-01-15T08:23:06;98680.22;;;-1.86;100.00
72570;BME280;60594;50.204;8.844;2024-01-15T08:25:51;98680.81;;;-1.81;100.00
72570;BME280;60594;50.204;8.844;2024-01-15T08:28:36;98681.22;;;-1.73;100.00
72570;BME280;60594;50.204;8.844;2024-01-15T08:31:21;98684.25;;;-1.65;100.00
72570;BME280;60594;50.204;8.844;2024-01-15T08:34:07;98670.38;;;-1.65;100.00
72570;BME280;60594;50.204;8.844;2024-01-15T08:36:53;98674.41;;;-1.75;100.00
72570;BME280;60594;50.204;8.844;2024-01-15T08:39:38;98670.94;;;-1.76;100.00
72570;BME280;60594;50.204;8.844;2024-01-15T08:42:23;98667.91;;;-1.68;100.00
72570;BME280;60594;50.204;8.844;2024-01-15T08:45:09;98663.69;;;-1.55;100.00
72570;BME280;60594;50.204;8.844;2024-01-15T08:47:53;98674.25;;;-1.57;100.00
72570;BME280;60594;50.204;8.844;2024-01-15T08:50:39;98671.44;;;-1.54;100.00
72570;BME280;60594;50.204;8.844;2024-01-15T08:53:23;98671.72;;;-1.58;100.00
72570;BME280;60594;50.204;8.844;2024-01-15T08:56:09;98681.06;;;-1.54;100.00
72570;BME280;60594;50.204;8.844;2024-01-15T08:58:53;98687.78;;;-1.50;100.00
72570;BME280;60594;50.204;8.844;2024-01-15T09:01:38;98682.56;;;-1.50;100.00
72570;BME280;60594;50.204;8.844;2024-01-15T09:04:24;98671.50;;;-1.40;100.00
72570;BME280;60594;50.204;8.844;2024-01-15T09:07:10;98674.56;;;-1.47;100.00
72570;BME280;60594;50.204;8.844;2024-01-15T09:09:54;98659.00;;;-1.35;100.00
72570;BME280;60594;50.204;8.844;2024-01-15T09:12:40;98656.53;;;-1.22;100.00
72570;BME280;60594;50.204;8.844;2024-01-15T09:15:24;98666.00;;;-1.20;100.00
72570;BME280;60594;50.204;8.844;2024-01-15T09:18:10;98664.13;;;-1.18;100.00
72570;BME280;60594;50.204;8.844;2024-01-15T09:20:55;98664.81;;;-1.14;100.00
72570;BME280;60594;50.204;8.844;2024-01-15T09:23:41;98658.25;;;-1.21;100.00
72570;BME280;60594;50.204;8.844;2024-01-15T09:26:25;98655.38;;;-1.03;100.00
72570;BME280;60594;50.204;8.844;2024-01-15T09:29:10;98667.00;;;-0.93;100.00
72570;BME280;60594;50.204;8.844;2024-01-15T09:31:56;98657.78;;;-0.84;100.00
72570;BME280;60594;50.204;8.844;2024-01-15T09:34:41;98661.34;;;-0.71;100.00
72570;BME280;60594;50.204;8.844;2024-01-15T09:37:26;98659.59;;;-0.57;100.00
72570;BME280;60594;50.204;8.844;2024-01-15T09:40:14;98665.47;;;-0.39;100.00
72570;BME280;60594;50.204;8.844;2024-01-15T09:43:00;98660.44;;;-0.28;100.00
72570;BME280;60594;50.204;8.844;2024-01-15T09:45:46;98655.38;;;-0.31;100.00
72570;BME280;60594;50.204;8.844;2024-01-15T09:48:31;98654.44;;;-0.30;100.00
72570;BME280;60594;50.204;8.844;2024-01-15T09:51:19;98657.06;;;-0.30;100.00
72570;BME280;60594;50.204;8.844;2024-01-15T09:54:04;98655.38;;;-0.31;100.00
72570;BME280;60594;50.204;8.844;2024-01-15T09:56:50;98649.28;;;-0.18;100.00
72570;BME280;60594;50.204;8.844;2024-01-15T09:59:36;98645.09;;;-0.06;100.00
72570;BME280;60594;50.204;8.844;2024-01-15T10:02:22;98639.31;;;-0.11;99.11
72570;BME280;60594;50.204;8.844;2024-01-15T10:05:07;98639.25;;;0.03;99.53
72570;BME280;60594;50.204;8.844;2024-01-15T10:07:54;98639.41;;;0.28;97.08
72570;BME280;60594;50.204;8.844;2024-01-15T10:10:41;98631.72;;;-0.02;98.08
72570;BME280;60594;50.204;8.844;2024-01-15T10:13:26;98627.72;;;-0.07;98.78
72570;BME280;60594;50.204;8.844;2024-01-15T10:16:11;98625.34;;;0.03;99.98
72570;BME280;60594;50.204;8.844;2024-01-15T10:18:56;98622.16;;;-0.03;99.22
72570;BME280;60594;50.204;8.844;2024-01-15T10:21:40;98632.09;;;-0.08;99.62
72570;BME280;60594;50.204;8.844;2024-01-15T10:24:27;98620.88;;;-0.10;100.00
72570;BME280;60594;50.204;8.844;2024-01-15T10:27:13;98623.22;;;-0.19;99.66
72570;BME280;60594;50.204;8.844;2024-01-15T10:29:59;98623.59;;;-0.11;100.00
72570;BME280;60594;50.204;8.844;2024-01-15T10:32:57;98626.38;;;0.00;99.64
72570;BME280;60594;50.204;8.844;2024-01-15T10:35:43;98619.44;;;0.13;98.51
72570;BME280;60594;50.204;8.844;2024-01-15T10:38:27;98608.75;;;0.16;98.08
72570;BME280;60594;50.204;8.844;2024-01-15T10:41:13;98595.94;;;0.12;98.17
72570;BME280;60594;50.204;8.844;2024-01-15T10:43:58;98592.25;;;0.28;98.32
72570;BME280;60594;50.204;8.844;2024-01-15T10:46:43;98593.72;;;0.32;97.34
72570;BME280;60594;50.204;8.844;2024-01-15T10:49:28;98580.88;;;0.42;96.73
72570;BME280;60594;50.204;8.844;2024-01-15T10:52:15;98585.16;;;0.30;97.05
72570;BME280;60594;50.204;8.844;2024-01-15T10:55:00;98588.31;;;0.35;96.59
72570;BME280;60594;50.204;8.844;2024-01-15T10:57:47;98586.06;;;0.29;96.29
72570;BME280;60594;50.204;8.844;2024-01-15T11:00:36;98581.28;;;0.36;96.99
72570;BME280;60594;50.204;8.844;2024-01-15T11:03:23;98579.19;;;0.41;96.92
72570;BME280;60594;50.204;8.844;2024-01-15T11:06:19;98574.91;;;0.40;96.14
72570;BME280;60594;50.204;8.844;2024-01-15T11:09:05;98569.00;;;0.36;95.97
72570;BME280;60594;50.204;8.844;2024-01-15T11:12:06;98566.28;;;0.38;95.50
72570;BME280;60594;50.204;8.844;2024-01-15T11:14:52;98570.84;;;0.48;96.28
72570;BME280;60594;50.204;8.844;2024-01-15T11:17:58;98574.59;;;0.83;95.05
72570;BME280;60594;50.204;8.844;2024-01-15T11:23:59;98568.41;;;0.97;92.91
72570;BME280;60594;50.204;8.844;2024-01-15T11:26:46;98559.91;;;0.93;93.64
72570;BME280;60594;50.204;8.844;2024-01-15T11:29:34;98558.34;;;0.78;93.57
72570;BME280;60594;50.204;8.844;2024-01-15T11:32:33;98547.28;;;0.61;94.50
72570;BME280;60594;50.204;8.844;2024-01-15T11:35:18;98546.44;;;0.60;95.41
72570;BME280;60594;50.204;8.844;2024-01-15T11:38:27;98556.63;;;0.77;93.48
72570;BME280;60594;50.204;8.844;2024-01-15T11:41:15;98554.13;;;0.88;93.75
72570;BME280;60594;50.204;8.844;2024-01-15T11:44:03;98549.31;;;0.82;93.90
72570;BME280;60594;50.204;8.844;2024-01-15T11:47:04;98547.53;;;0.95;92.44
72570;BME280;60594;50.204;8.844;2024-01-15T11:50:03;98551.72;;;0.98;93.23
72570;BME280;60594;50.204;8.844;2024-01-15T11:52:59;98548.06;;;0.88;94.50
72570;BME280;60594;50.204;8.844;2024-01-15T11:55:45;98551.84;;;0.84;93.32
72570;BME280;60594;50.204;8.844;2024-01-15T11:58:30;98548.66;;;0.79;94.41
72570;BME280;60594;50.204;8.844;2024-01-15T12:01:16;98559.47;;;0.74;95.15
72570;BME280;60594;50.204;8.844;2024-01-15T12:04:01;98548.78;;;0.77;94.33
72570;BME280;60594;50.204;8.844;2024-01-15T12:06:46;98550.03;;;0.84;93.11
72570;BME280;60594;50.204;8.844;2024-01-15T12:09:31;98549.84;;;0.87;93.54
72570;BME280;60594;50.204;8.844;2024-01-15T12:15:19;98556.34;;;0.82;95.09
72570;BME280;60594;50.204;8.844;2024-01-15T12:18:04;98543.75;;;0.74;96.41
72570;BME280;60594;50.204;8.844;2024-01-15T12:20:49;98551.13;;;0.55;98.90
72570;BME280;60594;50.204;8.844;2024-01-15T12:23:34;98561.94;;;0.51;100.00
72570;BME280;60594;50.204;8.844;2024-01-15T12:26:19;98556.78;;;0.37;100.00
72570;BME280;60594;50.204;8.844;2024-01-15T12:29:06;98553.41;;;0.35;100.00
72570;BME280;60594;50.204;8.844;2024-01-15T12:31:51;98562.19;;;0.34;100.00
72570;BME280;60594;50.204;8.844;2024-01-15T12:34:38;98558.09;;;0.30;100.00
72570;BME280;60594;50.204;8.844;2024-01-15T12:37:23;98565.88;;;0.31;100.00
72570;BME280;60594;50.204;8.844;2024-01-15T12:40:10;98571.25;;;0.42;100.00
72570;BME280;60594;50.204;8.844;2024-01-15T12:42:55;98568.53;;;0.44;100.00
72570;BME280;60594;50.204;8.844;2024-01-15T12:45:41;98566.25;;;0.52;100.00
72570;BME280;60594;50.204;8.844;2024-01-15T12:48:27;98573.16;;;0.53;100.00
72570;BME280;60594;50.204;8.844;2024-01-15T12:51:12;98565.38;;;0.51;100.00
72570;BME280;60594;50.204;8.844;2024-01-15T12:53:57;98573.47;;;0.61;100.00
72570;BME280;60594;50.204;8.844;2024-01-15T12:56:42;98566.75;;;0.96;100.00
72570;BME280;60594;50.204;8.844;2024-01-15T12:59:27;98572.41;;;1.15;98.98
72570;BME280;60594;50.204;8.844;2024-01-15T13:02:15;98572.09;;;1.07;99.44
72570;BME280;60594;50.204;8.844;2024-01-15T13:05:01;98574.31;;;1.13;99.54
72570;BME280;60594;50.204;8.844;2024-01-15T13:07:49;98570.94;;;1.23;98.40
72570;BME280;60594;50.204;8.844;2024-01-15T13:10:33;98583.50;;;1.31;97.61
72570;BME280;60594;50.204;8.844;2024-01-15T13:13:19;98575.34;;;1.35;96.42
72570;BME280;60594;50.204;8.844;2024-01-15T13:16:04;98570.50;;;1.42;94.16
72570;BME280;60594;50.204;8.844;2024-01-15T13:18:49;98568.72;;;1.42;93.78
72570;BME280;60594;50.204;8.844;2024-01-15T13:21:34;98574.47;;;1.47;93.83
72570;BME280;60594;50.204;8.844;2024-01-15T13:24:20;98569.38;;;1.46;92.84
72570;BME280;60594;50.204;8.844;2024-01-15T13:27:04;98564.41;;;1.54;93.12
72570;BME280;60594;50.204;8.844;2024-01-15T13:29:50;98558.81;;;1.58;90.57
72570;BME280;60594;50.204;8.844;2024-01-15T13:32:35;98570.06;;;1.60;91.53
72570;BME280;60594;50.204;8.844;2024-01-15T13:35:20;98558.00;;;1.58;90.43
72570;BME280;60594;50.204;8.844;2024-01-15T13:38:05;98561.78;;;1.66;90.86
72570;BME280;60594;50.204;8.844;2024-01-15T13:40:52;98569.50;;;1.68;89.60
72570;BME280;60594;50.204;8.844;2024-01-15T13:43:39;98557.13;;;1.70;88.03
72570;BME280;60594;50.204;8.844;2024-01-15T13:46:25;98568.66;;;1.80;88.19
72570;BME280;60594;50.204;8.844;2024-01-15T13:49:14;98561.00;;;1.77;88.50
72570;BME280;60594;50.204;8.844;2024-01-15T13:51:59;98563.22;;;1.83;89.24
72570;BME280;60594;50.204;8.844;2024-01-15T13:54:44;98572.88;;;1.82;88.43
72570;BME280;60594;50.204;8.844;2024-01-15T13:57:29;98573.56;;;1.84;87.87
72570;BME280;60594;50.204;8.844;2024-01-15T14:00:14;98586.50;;;1.87;87.96
72570;BME280;60594;50.204;8.844;2024-01-15T14:03:03;98580.72;;;1.95;87.69
72570;BME280;60594;50.204;8.844;2024-01-15T14:05:48;98584.91;;;1.97;86.25
72570;BME280;60594;50.204;8.844;2024-01-15T14:08:37;98592.78;;;1.97;86.82
72570;BME280;60594;50.204;8.844;2024-01-15T14:11:22;98589.09;;;2.00;86.53
72570;BME280;60594;50.204;8.844;2024-01-15T14:14:07;98589.72;;;2.03;86.63
72570;BME280;60594;50.204;8.844;2024-01-15T14:16:54;98583.19;;;2.09;83.86
72570;BME280;60594;50.204;8.844;2024-01-15T14:19:39;98597.91;;;2.11;85.30
72570;BME280;60594;50.204;8.844;2024-01-15T14:22:23;98605.88;;;2.10;85.62
72570;BME280;60594;50.204;8.844;2024-01-15T14:25:08;98606.94;;;2.07;85.54
72570;BME280;60594;50.204;8.844;2024-01-15T14:27:54;98596.88;;;2.01;85.01
72570;BME280;60594;50.204;8.844;2024-01-15T14:30:39;98614.84;;;1.95;86.32
72570;BME280;60594;50.204;8.844;2024-01-15T14:33:24;98621.78;;;1.96;85.76
72570;BME280;60594;50.204;8.844;2024-01-15T14:36:09;98620.09;;;1.95;85.06
72570;BME280;60594;50.204;8.844;2024-01-15T14:38:54;98624.28;;;1.97;85.68